Terminal Aerodrome Forecast
Issued by NWS Charleston, WV

Current Version | Previous Version | Graphics & Text | Print | Product List | Glossary On
Versions: 1 2 3 4 5 6 7 8 9 10 11 12 13 14 15 16 17 18 19 20 21 22 23 24 25 26 27 28 29
008
FTUS41 KRLX 180211 AAA
TAFPKB
TAF AMD
KPKB 180211Z 1802/1824 VRB03KT P6SM FEW060
     FM180300 VRB03KT P6SM SKC
     FM181500 18004KT P6SM BKN050
     FM182000 18005KT P6SM BKN035=

USA.gov is the U.S. government's official web portal to all federal, state and local government web resources and services.